.
WxDataArchive / Data Records for 2011-03-20
2011-03-19 March 2011 2011-03-21

Data Records for Sunday, 20 March 2011

Time	Temp	Chill	HIndex	Humid	Dewpt	 Wind 	HiWind	WindDir	Rain 	Barom 
-----	----	-----	------	-----	-----	------	------	-------	-----	----- 
00:00	38.9	38.9	38.9	66	28.5	0	0	---	0.00	30.493 
00:05	38.6	38.6	38.6	67	28.6	0	0	---	0.00	30.493 
00:10	38.5	38.5	38.5	67	28.5	0	1	90	0.00	30.493 
00:15	38.3	38.3	38.3	68	28.7	0	0	---	0.00	30.492 
00:20	38.3	38.3	38.3	68	28.7	0	0	---	0.00	30.492 
00:25	38.2	38.2	38.2	69	28.9	0	0	---	0.00	30.492 
00:30	38.0	38.0	38.0	69	28.7	0	1	90	0.00	30.493 
00:35	38.2	38.2	38.2	69	28.9	0	1	90	0.00	30.493 
00:40	38.3	38.3	38.3	69	29.0	0	2	90	0.00	30.493 
00:45	38.5	38.5	38.5	69	29.2	0	2	90	0.00	30.486 
00:50	38.8	38.8	38.8	68	29.2	1	2	90	0.00	30.486 
00:55	38.8	38.8	38.8	68	29.2	1	3	90	0.00	30.486 
01:00	38.9	38.9	38.9	68	29.3	1	3	90	0.00	30.485 
01:05	38.9	38.9	38.9	68	29.3	2	5	112	0.00	30.485 
01:10	38.9	38.9	38.9	68	29.3	1	3	112	0.00	30.485 
01:15	38.9	38.9	38.9	69	29.6	1	4	112	0.00	30.489 
01:20	38.9	38.9	38.9	69	29.6	1	4	112	0.00	30.489 
01:25	38.9	38.9	38.9	69	29.6	1	2	112	0.00	30.489 
01:30	39.1	39.1	39.1	69	29.8	1	3	112	0.00	30.495 
01:35	39.1	39.1	39.1	69	29.8	2	4	112	0.00	30.495 
01:40	39.2	39.2	39.2	70	30.3	1	3	90	0.00	30.495 
01:45	39.2	39.2	39.2	69	29.9	2	4	90	0.00	30.500 
01:50	39.3	39.3	39.3	70	30.3	2	6	90	0.00	30.500 
01:55	39.3	39.3	39.3	70	30.3	3	9	90	0.00	30.500 
02:00	39.2	39.2	39.2	71	30.6	3	7	90	0.00	30.499 
02:05	39.2	39.2	39.2	72	30.9	2	6	112	0.00	30.499 
02:10	39.1	39.1	39.1	72	30.8	2	8	90	0.00	30.499 
02:15	38.9	38.9	38.9	73	31.0	3	6	90	0.00	30.493 
02:20	38.8	38.8	38.8	73	30.9	3	7	90	0.00	30.493 
02:25	38.5	38.5	38.5	74	30.9	3	7	90	0.00	30.493 
02:30	38.3	38.3	38.3	75	31.1	3	7	90	0.00	30.503 
02:35	38.2	38.2	38.2	76	31.3	3	6	90	0.00	30.503 
02:40	38.0	38.0	38.0	77	31.4	3	9	90	0.00	30.503 
02:45	37.9	37.9	37.9	77	31.3	3	6	90	0.00	30.506 
02:50	37.6	37.6	37.6	78	31.4	3	9	112	0.00	30.506 
02:55	37.3	37.3	37.3	78	31.1	3	11	90	0.00	30.506 
03:00	37.2	34.1	37.2	78	31.0	4	8	90	0.00	30.504 
03:05	36.9	36.9	36.9	78	30.7	3	6	90	0.00	30.504 
03:10	36.8	36.8	36.8	78	30.6	3	6	90	0.00	30.504 
03:15	36.6	36.6	36.6	79	30.7	3	6	90	0.00	30.494 
03:20	36.3	33.0	36.3	78	30.1	4	8	90	0.00	30.494 
03:25	36.2	36.2	36.2	78	30.0	3	9	90	0.00	30.494 
03:30	36.0	36.0	36.0	78	29.8	3	6	90	0.00	30.491 
03:35	36.0	36.0	36.0	78	29.8	3	7	90	0.00	30.491 
03:40	35.9	35.9	35.9	78	29.7	3	7	112	0.00	30.491 
03:45	35.8	35.8	35.8	78	29.6	3	5	90	0.00	30.480 
03:50	35.8	35.8	35.8	78	29.6	3	5	90	0.00	30.480 
03:55	35.8	35.8	35.8	77	29.3	3	9	90	0.00	30.480 
04:00	35.6	35.6	35.6	77	29.1	2	6	90	0.00	30.478 
04:05	35.6	35.6	35.6	78	29.4	3	7	90	0.00	30.478 
04:10	35.5	35.5	35.5	78	29.3	2	6	90	0.00	30.478 
04:15	35.5	32.1	35.5	78	29.3	4	10	90	0.00	30.473 
04:20	35.3	35.3	35.3	78	29.1	3	6	90	0.00	30.473 
04:25	35.2	31.8	35.2	78	29.0	4	10	90	0.00	30.473 
04:30	35.2	30.8	35.2	78	29.0	5	13	90	0.00	30.461 
04:35	35.0	35.0	35.0	78	28.8	3	9	90	0.00	30.461 
04:40	35.0	30.6	35.0	77	28.5	5	12	90	0.00	30.461 
04:45	34.9	31.4	34.9	77	28.4	4	10	90	0.00	30.461 
04:50	34.9	34.9	34.9	78	28.7	3	7	90	0.00	30.461 
04:55	34.7	31.2	34.7	78	28.6	4	9	90	0.00	30.461 
05:00	34.6	34.6	34.6	78	28.5	3	6	90	0.00	30.461 
05:05	34.6	34.6	34.6	78	28.5	3	5	90	0.00	30.461 
05:10	34.4	34.4	34.4	79	28.6	3	6	90	0.00	30.461 
05:15	34.3	34.3	34.3	79	28.5	2	5	68	0.00	30.463 
05:20	34.3	34.3	34.3	79	28.5	3	6	90	0.00	30.463 
05:25	34.3	30.7	34.3	80	28.8	4	11	90	0.00	30.463 
05:30	34.1	34.1	34.1	80	28.6	2	6	112	0.00	30.461 
05:35	34.1	30.5	34.1	80	28.6	4	6	90	0.00	30.461 
05:40	34.1	30.5	34.1	80	28.6	4	9	112	0.00	30.461 
05:45	34.1	30.5	34.1	81	28.9	4	10	112	0.00	30.460 
05:50	34.1	29.5	34.1	80	28.6	5	12	90	0.00	30.460 
05:55	34.1	30.5	34.1	80	28.6	4	10	90	0.00	30.460 
06:00	34.1	30.5	34.1	80	28.6	4	12	90	0.00	30.460 
06:05	34.1	29.5	34.1	80	28.6	5	13	90	0.00	30.460 
06:10	34.1	30.5	34.1	80	28.6	4	10	90	0.00	30.460 
06:15	34.3	29.8	34.3	80	28.8	5	11	90	0.00	30.453 
06:20	34.1	29.5	34.1	79	28.3	5	13	90	0.00	30.453 
06:25	34.1	29.5	34.1	79	28.3	5	12	112	0.00	30.453 
06:30	34.1	30.5	34.1	79	28.3	4	9	90	0.00	30.451 
06:35	34.1	30.5	34.1	79	28.3	4	7	90	0.00	30.451 
06:40	34.1	29.5	34.1	79	28.3	5	14	112	0.00	30.451 
06:45	34.1	30.5	34.1	79	28.3	4	9	112	0.00	30.447 
06:50	34.1	34.1	34.1	79	28.3	3	7	112	0.00	30.447 
06:55	34.3	30.7	34.3	78	28.2	4	9	90	0.00	30.447 
07:00	34.4	30.8	34.4	78	28.3	4	11	90	0.00	30.436 
07:05	34.4	29.9	34.4	77	27.9	5	10	90	0.00	30.436 
07:10	34.6	30.1	34.6	76	27.8	5	12	90	0.00	30.436 
07:15	34.7	31.2	34.7	74	27.3	4	7	90	0.00	30.449 
07:20	34.7	31.2	34.7	74	27.3	4	7	112	0.00	30.449 
07:25	34.9	30.5	34.9	73	27.1	5	11	90	0.00	30.449 
07:30	34.7	34.7	34.7	74	27.3	3	7	112	0.00	30.454 
07:35	34.7	34.7	34.7	74	27.3	3	7	90	0.00	30.454 
07:40	34.7	31.2	34.7	75	27.6	4	7	90	0.00	30.454 
07:45	34.6	34.6	34.6	75	27.5	3	9	90	0.00	30.443 
07:50	34.4	34.4	34.4	76	27.6	2	4	90	0.00	30.443 
07:55	34.4	34.4	34.4	76	27.6	3	9	68	0.00	30.443 
08:00	34.4	34.4	34.4	76	27.6	3	5	112	0.00	30.448 
08:05	34.4	34.4	34.4	75	27.3	3	6	90	0.00	30.448 
08:10	34.4	34.4	34.4	75	27.3	3	6	112	0.00	30.448 
08:15	34.4	34.4	34.4	75	27.3	3	7	112	0.00	30.450 
08:20	34.4	34.4	34.4	75	27.3	3	8	112	0.00	30.450 
08:25	34.4	30.8	34.4	74	27.0	4	9	90	0.00	30.450 
08:30	34.6	30.1	34.6	73	26.9	5	9	112	0.00	30.444 
08:35	34.9	31.4	34.9	73	27.1	4	9	112	0.00	30.444 
08:40	35.0	31.5	35.0	73	27.2	4	10	112	0.00	30.444 
08:45	35.3	35.3	35.3	73	27.5	3	7	112	0.00	30.438 
08:50	35.3	31.9	35.3	73	27.5	4	9	90	0.00	30.438 
08:55	35.3	31.0	35.3	73	27.5	5	11	112	0.00	30.438 
09:00	35.5	35.5	35.5	73	27.7	3	7	112	0.00	30.438 
09:05	35.6	35.6	35.6	73	27.8	3	7	112	0.00	30.438 
09:10	35.8	32.5	35.8	73	28.0	4	7	90	0.00	30.438 
09:15	35.9	35.9	35.9	73	28.1	3	7	90	0.00	30.434 
09:20	35.9	32.6	35.9	73	28.1	4	7	90	0.00	30.434 
09:25	36.0	36.0	36.0	73	28.2	3	6	90	0.00	30.434 
09:30	36.2	32.9	36.2	73	28.4	4	8	90	0.00	30.428 
09:35	36.3	33.0	36.3	73	28.5	4	10	112	0.00	30.428 
09:40	36.6	36.6	36.6	72	28.4	3	6	90	0.00	30.428 
09:45	36.9	33.7	36.9	72	28.7	4	7	90	0.00	30.421 
09:50	37.0	32.9	37.0	72	28.8	5	9	90	0.00	30.421 
09:55	37.3	33.3	37.3	71	28.8	5	9	90	0.00	30.421 
10:00	37.6	34.5	37.6	71	29.1	4	9	90	0.00	30.429 
10:05	38.0	38.0	38.0	71	29.4	2	5	90	0.00	30.429 
10:10	38.2	35.2	38.2	69	28.9	4	10	112	0.00	30.429 
10:15	38.5	38.5	38.5	69	29.2	1	5	90	0.00	30.428 
10:20	38.8	38.8	38.8	68	29.2	3	8	112	0.00	30.428 
10:25	39.1	36.3	39.1	68	29.4	4	8	112	0.00	30.428 
10:30	39.5	39.5	39.5	67	29.5	3	10	112	0.00	30.421 
10:35	39.8	37.1	39.8	66	29.4	4	9	90	0.00	30.421 
10:40	39.9	36.4	39.9	66	29.5	5	11	90	0.00	30.421 
10:45	39.9	37.2	39.9	66	29.5	4	9	90	0.00	30.408 
10:50	40.2	37.5	40.2	66	29.8	4	10	90	0.00	30.408 
10:55	40.6	37.2	40.6	66	30.1	5	10	90	0.00	30.408 
11:00	41.3	38.8	41.3	65	30.4	4	10	112	0.00	30.403 
11:05	41.8	38.6	41.8	63	30.1	5	11	112	0.00	30.403 
11:10	42.5	42.5	42.5	62	30.4	3	8	112	0.00	30.403 
11:15	43.2	43.2	43.2	61	30.7	3	8	112	0.00	30.387 
11:20	43.8	41.7	43.8	59	30.4	4	9	112	0.00	30.387 
11:25	44.1	42.1	44.1	59	30.7	4	11	112	0.00	30.387 
11:30	44.1	42.1	44.1	59	30.7	4	12	112	0.00	30.383 
11:35	44.3	41.5	44.3	58	30.5	5	11	90	0.00	30.383 
11:40	44.2	42.2	44.2	58	30.4	4	13	112	0.00	30.383 
11:45	44.2	44.2	44.2	58	30.4	3	7	112	0.00	30.369 
11:50	44.6	42.6	44.6	58	30.7	4	10	112	0.00	30.369 
11:55	45.4	45.4	45.4	57	31.1	3	6	112	0.00	30.369 
12:00	46.2	46.2	46.2	54	30.5	3	6	112	0.00	30.366 
12:05	46.7	46.7	46.7	54	30.9	3	13	112	0.00	30.366 
12:10	46.8	45.2	46.8	52	30.1	4	10	90	0.00	30.366 
12:15	47.1	47.1	47.1	52	30.4	3	6	112	0.00	30.361 
12:20	47.4	47.4	47.4	52	30.7	3	11	112	0.00	30.361 
12:25	47.4	45.2	47.4	51	30.2	5	13	90	0.00	30.361 
12:30	47.7	46.2	47.7	51	30.5	4	9	90	0.00	30.336 
12:35	48.5	46.5	48.5	51	31.2	5	11	112	0.00	30.336 
12:40	49.1	46.6	49.1	48	30.3	6	14	112	0.00	30.336 
12:45	49.8	48.0	49.8	49	31.4	5	12	90	0.00	30.331 
12:50	50.2	50.2	50.2	46	30.2	4	10	90	0.00	30.331 
12:55	50.5	50.5	50.5	47	31.0	3	13	90	0.00	30.331 
13:00	50.8	50.8	50.8	44	29.7	3	11	90	0.00	30.316 
13:05	50.8	50.8	50.8	44	29.7	4	7	90	0.00	30.316 
13:10	51.0	51.0	51.0	45	30.4	3	7	112	0.00	30.316 
13:15	51.0	51.0	51.0	45	30.4	4	10	90	0.00	30.311 
13:20	51.0	51.0	51.0	45	30.4	3	10	90	0.00	30.311 
13:25	51.1	51.1	51.1	45	30.5	4	8	112	0.00	30.311 
13:30	51.7	51.7	51.7	44	30.5	2	6	90	0.00	30.302 
13:35	52.2	52.2	52.2	43	30.4	3	7	112	0.00	30.302 
13:40	52.6	52.6	52.6	43	30.7	2	4	90	0.00	30.302 
13:45	52.9	52.9	52.9	42	30.4	3	7	90	0.00	30.283 
13:50	52.8	52.8	52.8	43	30.9	3	6	90	0.00	30.283 
13:55	52.8	52.8	52.8	42	30.3	2	6	90	0.00	30.283 
14:00	52.8	52.8	52.8	42	30.3	3	7	112	0.00	30.262 
14:05	52.8	52.8	52.8	43	30.9	3	6	112	0.00	30.262 
14:10	52.8	52.8	52.8	41	29.8	3	9	90	0.00	30.262 
14:15	52.9	52.9	52.9	43	31.0	5	10	90	0.00	30.249 
14:20	53.2	53.2	53.2	42	30.7	4	9	90	0.00	30.249 
14:25	53.8	53.8	53.8	42	31.3	4	7	90	0.00	30.249 
14:30	54.5	54.5	54.5	39	30.1	5	12	112	0.00	30.232 
14:35	54.8	54.8	54.8	40	30.9	4	9	90	0.00	30.232 
14:40	55.1	55.1	55.1	38	30.0	3	13	90	0.00	30.232 
14:45	55.0	55.0	55.0	38	29.9	3	7	90	0.00	30.219 
14:50	54.8	54.8	54.8	38	29.7	3	12	90	0.00	30.219 
14:55	54.5	54.5	54.5	39	30.1	4	10	112	0.00	30.219 
15:00	54.8	54.8	54.8	39	30.3	2	6	112	0.00	30.205 
15:05	55.3	55.3	55.3	39	30.8	4	11	112	0.00	30.205 
15:10	55.4	55.4	55.4	39	30.9	4	12	112	0.00	30.205 
15:15	56.0	56.0	56.0	39	31.4	5	12	112	0.00	30.190 
15:20	56.5	56.5	56.5	37	30.5	3	15	90	0.00	30.190 
15:25	57.0	57.0	57.0	37	31.0	4	13	112	0.00	30.190 
15:30	57.0	57.0	57.0	36	30.3	5	14	90	0.00	30.175 
15:35	57.0	57.0	57.0	37	31.0	3	10	68	0.00	30.175 
15:40	57.0	57.0	57.0	37	31.0	4	11	90	0.00	30.175 
15:45	57.3	57.3	57.3	39	32.6	4	9	112	0.00	30.168 
15:50	57.8	57.8	57.8	37	31.7	3	7	90	0.00	30.168 
15:55	57.8	57.8	57.8	37	31.7	3	10	90	0.00	30.168 
16:00	57.6	57.6	57.6	38	32.2	4	10	112	0.00	30.148 
16:05	57.6	57.6	57.6	39	32.8	3	9	112	0.00	30.148 
16:10	57.8	57.8	57.8	39	33.0	3	10	112	0.00	30.148 
16:15	58.0	58.0	58.0	39	33.2	4	7	90	0.00	30.138 
16:20	58.1	58.1	58.1	39	33.3	3	10	90	0.00	30.138 
16:25	58.3	58.3	58.3	40	34.1	2	5	90	0.00	30.138 
16:30	58.6	58.6	58.6	39	33.7	4	10	90	0.00	30.136 
16:35	58.6	58.6	58.6	40	34.4	4	11	112	0.00	30.136 
16:40	58.7	58.7	58.7	39	33.8	2	6	90	0.00	30.136 
16:45	59.0	59.0	59.0	39	34.1	3	7	68	0.00	30.129 
16:50	59.2	59.2	59.2	39	34.3	2	6	68	0.00	30.129 
16:55	59.2	59.2	59.2	38	33.6	2	7	90	0.00	30.129 
17:00	59.0	59.0	59.0	39	34.1	2	5	90	0.00	30.122 
17:05	58.9	58.9	58.9	39	34.0	2	6	90	0.00	30.122 
17:10	58.7	58.7	58.7	39	33.8	1	3	135	0.00	30.122 
17:15	58.7	58.7	58.7	40	34.4	1	4	68	0.00	30.139 
17:20	58.6	58.6	58.6	40	34.4	1	4	90	0.00	30.139 
17:25	58.6	58.6	58.6	40	34.4	0	2	90	0.00	30.139 
17:30	58.6	58.6	58.6	40	34.4	1	4	90	0.00	30.124 
17:35	58.4	58.4	58.4	41	34.8	1	3	90	0.00	30.124 
17:40	58.6	58.6	58.6	42	35.6	1	4	68	0.00	30.124 
17:45	58.6	58.6	58.6	42	35.6	2	5	90	0.00	30.106 
17:50	58.4	58.4	58.4	43	36.0	2	6	90	0.00	30.106 
17:55	58.4	58.4	58.4	43	36.0	2	6	68	0.00	30.106 
18:00	58.3	58.3	58.3	43	35.9	2	5	90	0.00	30.092 
18:05	58.3	58.3	58.3	43	35.9	1	3	112	0.00	30.092 
18:10	58.3	58.3	58.3	44	36.5	1	4	112	0.00	30.092 
18:15	58.3	58.3	58.3	44	36.5	1	5	112	0.00	30.091 
18:20	58.3	58.3	58.3	45	37.1	1	3	68	0.00	30.091 
18:25	58.4	58.4	58.4	45	37.1	2	4	112	0.00	30.091 
18:30	58.4	58.4	58.4	44	36.6	1	4	112	0.00	30.090 
18:35	58.4	58.4	58.4	44	36.6	1	5	135	0.00	30.090 
18:40	58.4	58.4	58.4	46	37.7	1	3	135	0.00	30.090 
18:45	58.4	58.4	58.4	45	37.1	1	4	112	0.00	30.078 
18:50	58.4	58.4	58.4	46	37.7	1	4	112	0.00	30.078 
18:55	58.4	58.4	58.4	46	37.7	1	4	112	0.00	30.078 
19:00	58.4	58.4	58.4	46	37.7	1	3	112	0.00	30.076 
19:05	58.4	58.4	58.4	47	38.2	0	2	112	0.00	30.076 
19:10	58.3	58.3	58.3	47	38.2	1	3	112	0.00	30.076 
19:15	58.3	58.3	58.3	47	38.2	1	3	112	0.00	30.076 
19:20	58.3	58.3	58.3	47	38.2	1	3	112	0.00	30.076 
19:25	58.3	58.3	58.3	47	38.2	0	1	112	0.00	30.076 
19:30	58.3	58.3	58.3	47	38.2	1	2	112	0.00	30.072 
19:35	58.3	58.3	58.3	47	38.2	2	4	112	0.00	30.072 
19:40	58.3	58.3	58.3	47	38.2	1	3	112	0.00	30.072 
19:45	58.1	58.1	58.1	48	38.5	1	4	112	0.00	30.068 
19:50	58.1	58.1	58.1	48	38.5	1	3	112	0.00	30.068 
19:55	58.0	58.0	58.0	48	38.4	1	3	112	0.00	30.068 
20:00	58.0	58.0	58.0	49	38.9	0	1	112	0.00	30.076 
20:05	57.8	57.8	57.8	50	39.3	0	2	112	0.00	30.076 
20:10	57.2	57.2	57.2	51	39.2	4	14	112	0.00	30.076 
20:15	53.6	53.6	53.6	60	40.1	4	10	90	0.00	30.081 
20:20	51.0	51.0	51.0	64	39.3	3	12	45	0.00	30.081 
20:25	48.5	46.5	48.5	69	38.8	5	14	112	0.00	30.081 
20:30	46.8	44.5	46.8	72	38.3	5	15	90	0.00	30.088 
20:35	45.4	42.2	45.4	73	37.3	6	12	90	0.00	30.088 
20:40	44.2	42.2	44.2	74	36.4	4	11	90	0.00	30.088 
20:45	43.8	41.7	43.8	76	36.7	4	11	90	0.00	30.073 
20:50	43.1	38.9	43.1	77	36.4	7	15	112	0.00	30.073 
20:55	42.5	40.2	42.5	78	36.1	4	11	112	0.00	30.073 
21:00	42.1	42.1	42.1	78	35.7	3	9	90	0.00	30.057 
21:05	41.6	41.6	41.6	80	35.9	3	11	135	0.00	30.057 
21:10	41.2	38.7	41.2	80	35.5	4	10	90	0.00	30.057 
21:15	40.9	38.4	40.9	81	35.5	4	10	112	0.00	30.052 
21:20	40.8	38.2	40.8	81	35.4	4	9	112	0.00	30.052 
21:25	40.5	40.5	40.5	82	35.4	3	7	112	0.00	30.052 
21:30	40.3	40.3	40.3	82	35.2	3	7	90	0.00	30.047 
21:35	40.3	37.7	40.3	83	35.6	4	8	90	0.00	30.047 
21:40	40.2	40.2	40.2	83	35.5	2	8	90	0.00	30.047 
21:45	40.3	37.7	40.3	83	35.6	4	10	90	0.00	30.041 
21:50	40.3	40.3	40.3	83	35.6	3	10	112	0.00	30.041 
21:55	40.3	40.3	40.3	83	35.6	3	7	90	0.00	30.041 
22:00	40.3	37.7	40.3	83	35.6	4	7	112	0.00	30.037 
22:05	40.3	37.7	40.3	83	35.6	4	11	112	0.00	30.037 
22:10	40.2	40.2	40.2	83	35.5	3	6	135	0.00	30.037 
22:15	40.2	37.5	40.2	83	35.5	4	9	112	0.00	30.027 
22:20	40.2	40.2	40.2	83	35.5	3	6	112	0.00	30.027 
22:25	40.2	40.2	40.2	83	35.5	3	5	112	0.00	30.027 
22:30	40.2	40.2	40.2	83	35.5	3	6	90	0.00	30.024 
22:35	40.2	40.2	40.2	83	35.5	3	6	90	0.00	30.024 
22:40	40.2	40.2	40.2	83	35.5	3	6	90	0.00	30.024 
22:45	40.3	40.3	40.3	83	35.6	3	5	112	0.00	30.009 
22:50	40.3	40.3	40.3	83	35.6	3	7	112	0.00	30.009 
22:55	40.3	40.3	40.3	83	35.6	3	6	90	0.00	30.009 
23:00	40.3	40.3	40.3	83	35.6	1	4	90	0.00	30.005 
23:05	40.5	40.5	40.5	84	36.1	0	3	90	0.00	30.005 
23:10	40.5	40.5	40.5	84	36.1	2	6	112	0.00	30.005 
23:15	40.5	40.5	40.5	83	35.8	2	5	90	0.00	30.002 
23:20	40.6	40.6	40.6	84	36.2	2	5	90	0.00	30.002 
23:25	40.6	40.6	40.6	84	36.2	2	4	90	0.00	30.002 
23:30	40.8	40.8	40.8	83	36.0	1	4	90	0.00	30.010 
23:35	40.9	40.9	40.9	83	36.1	1	3	90	0.00	30.010 
23:40	41.1	41.1	41.1	83	36.3	1	3	90	0.00	30.010 
23:45	41.2	41.2	41.2	83	36.4	0	3	90	0.00	30.016 
23:50	41.2	41.2	41.2	84	36.7	0	0	---	0.00	30.016 
23:55	41.3	41.3	41.3	84	36.8	0	2	90	0.01	30.016 

CoCoRaHS
IN-AL-39
A2 Web Hosting
Creative Commons License
GoDaddy
search engine by freefind advanced

loaded 2018-11-15 03:06:06 • last modified 2010-11-18 10:43:29
Privacy PolicyDisclaimer
• wx.awcolley.com is powered by PmWiki v.2002016 •
• all content (unless otherwise noted) © 2018 A W Colley